Eagle Bend, Minnesota
Current Conditions -  °F | °C
As of 2:14 PM on Sunday 25 Jan 2015 (Local Time) from KSAZ Reporting Station
Broken Clouds Broken Clouds  
Wind Chill: 25°   Ceiling: 2500
Heat Index: 25°   Visibility: 10mi
Dew Point: 16°   Wind: 0mph
Humidity: 69%   Direction: NA
Pressure: 30"   Gusts: NA
Location:  46.16°N, 95.04°W
Report Text: KSAZ 252014Z AUTO 00000KT 10SM BKN025 M04/M09 A3000 RMK AO2
Loading
Personal Weather Stations






























Interactive Weather Map New forecast layout! Learn more

10-Day Weather Forecast

Advertisements
Track Severe Weather on mobile